Terminal Aerodrome Forecast
Issued by NWS

Current Version | Previous Version | Graphics & Text | Print | Product List | Glossary On
Versions: 1 2 3 4 5 6 7 8 9 10 11 12 13 14 15 16 17 18 19 20 21 22 23 24 25
000
FTUS41 KPBZ 250500
TAFHLG
TAF
KHLG 250531Z 2506/2606 10005KT P6SM SCT120 BKN250
     FM250900 12008KT P6SM -SHRA OVC040 WS020/19035KT
     FM251500 18012G22KT P6SM BKN025
     FM252100 22012KT P6SM SCT025=

USA.gov is the U.S. government's official web portal to all federal, state and local government web resources and services.